Casper Hojlund

Olheiro-Chefe - FC Midtjylland
27 Jan 2028
Quinta-feira
Processo

Personalidade

Adaptabilidade (8) Ambição (14) Controvérsia (12) Lealdade (20) Pressão (19) Profissionalismo (18) Espírito Esportivo (3) Temperamento (1)

Perfil

Estilo de Treinamento Democrático
Licença Continental C
Determinação 13
Gestão de Pessoas 8
Motivação 5
Disciplina 5
Satisfação no Trabalho
100%
Fadiga
0%
Função Olheiro-Chefe
Salário 17.9K p/s
Contrato 14.03.2030

Desempenho

Comportamento Bom
Eficácia do Treinamento
49%
Desenvolvimento do Jogador
60%
Prevenção de Lesões
70%
Implementação Tática
65%

Eventos Recentes

Participou de uma reunião de recrutamento agora
Recomendou um alvo de transferência agora
Recomendou um alvo de transferência agora
Recomendou um alvo de transferência agora
Recomendou um alvo de transferência agora
Recomendou um alvo de transferência agora
Apresentou um dossiê à direção 7d atrás
Participando de desenvolvimento profissional 7d atrás

Monitorando agora

113
Jogador Clube Status Habilidade Confiança Observado Última observação Último voto
Thiago Almada River Plate Ativo 139 / 144 40% 1 19.01.2028 -
Miguel Pereira Persebaya Ativo 130 / 106 40% 1 19.01.2028 -
Facundo Torres Austin FC Perdido 151 / 130 40% 1 19.01.2028 -
Duckens Nazon RC Strasbourg Ativo 115 / 115 67% 1 17.01.2028 Aprovar
Keny Arroyo Cruzeiro Ativo 135 / 122 40% 1 04.01.2028 -
Luis Sinisterra Cruzeiro Ativo 149 / 143 40% 1 04.01.2028 -
Daniel Deac Hajduk Split Ativo 137 / 140 66% 1 01.01.2028 Aprovar
Heung-Min Son Millonarios Ativo 151 / 151 68% 1 01.01.2028 Aprovar
Denis Bouanga Nacional Ativo 134 / 134 67% 1 01.01.2028 Aprovar
Sifiso Mahlangu Legia Ativo 112 / 112 66% 1 01.01.2028 Aprovar
Seedy Jatta New York Red Bulls Ativo 118 / 122 67% 1 01.01.2028 Aprovar
Mateo Lizondo Colón Ativo 98 / 100 40% 2 27.08.2027 -
Mateo Peralta Danubio Ativo 100 / 120 40% 1 27.08.2027 -
George Paaku Hearts of Oak Ativo 98 / 94 40% 1 27.08.2027 -
Pablo Suárez Rentistas Ativo 96 / 112 40% 2 26.08.2027 -
Ian Wisdom Sporting Cristal Ativo 94 / 110 40% 1 26.08.2027 -
Manuel Kissanga Inter Allies Ativo 89 / 96 40% 1 26.08.2027 -
Vadim Arutyunyan Dnepr Mogilev Ativo 92 / 92 40% 1 25.08.2027 -
Musa Malik Ikorodu City Ativo 93 / 93 40% 1 24.08.2027 -
Afriyie Sulemana Hasaacas Ativo 104 / 98 40% 1 23.08.2027 -
Teo Rodríguez Pagano San Lorenzo Ativo 104 / 123 40% 1 23.08.2027 -
Rafael Vargas Cortulua Ativo 78 / 105 40% 1 23.08.2027 -
Elias Achouri San Diego Football Club Ativo 136 / 130 40% 1 21.08.2027 -
Imran Oulad Omar Dinamo Batumi Ativo 129 / 112 40% 1 21.08.2027 -
Dany Mota Monza Ativo 140 / 143 40% 5 20.08.2027 -
Kian Fitz-Jim Torino Ativo 144 / 140 40% 1 20.08.2027 -
Leonardo Sernicola Benevento Ativo 119 / 117 40% 1 20.08.2027 -
Andrea Colpani Monza Ativo 137 / 141 40% 1 18.08.2027 -
Boulaye Dia Lazio Ativo 135 / 144 40% 1 18.08.2027 -
Armand Laurienté Sassuolo Ativo 153 / 142 40% 2 17.08.2027 -
Álex Valle Como Ativo 136 / 142 40% 1 17.08.2027 -
Tomáš Suslov Hellas Verona Ativo 136 / 138 40% 1 17.08.2027 -
Idrissa Touré Monza Ativo 149 / 137 40% 1 16.08.2027 -
Pau Casadesús Granada Ativo 124 / 132 40% 3 15.08.2027 -
Filippo Ranocchia Palermo Ativo 140 / 137 40% 1 15.08.2027 -
Nicolás Paz San Martín SJ Ativo 118 / 121 40% 1 15.08.2027 -
Cesare Casadei Torino Ativo 126 / 140 40% 1 15.08.2027 -
Enrico Delprato Parma Ativo 133 / 134 40% 1 12.08.2027 -
Samuele Angori Pisa Ativo 125 / 147 40% 1 12.08.2027 -
Kelvin Flórez Udinese Ativo 132 / 130 40% 1 11.08.2027 -
Emanuele Adamo Spezia Ativo 131 / 119 40% 2 10.08.2027 -
Ethan Williams Peterborough United Ativo 118 / 125 40% 3 09.08.2027 -
Ronald Swansea City Ativo 135 / 139 40% 2 09.08.2027 -
Max Johnston Derby County Ativo 133 / 139 40% 1 09.08.2027 -
Alfie Gilchrist West Bromwich Albion Ativo 121 / 131 40% 1 09.08.2027 -
Brodie Spencer Oxford United Ativo 136 / 127 40% 1 09.08.2027 -
Myles Peart-Harris Bristol Rovers Ativo 120 / 130 40% 1 09.08.2027 -
Malik Mothersille Stockport County Ativo 125 / 113 40% 3 08.08.2027 -
Armando Dobra Chesterfield Ativo 114 / 109 40% 3 08.08.2027 -
Todd Cantwell Blackburn Rovers Ativo 143 / 128 40% 3 08.08.2027 -
Jack Rudoni Coventry City Ativo 128 / 135 40% 2 07.08.2027 -
Isaak Davies Cardiff City Ativo 118 / 116 40% 3 05.08.2027 -
Sorba Thomas Stoke City Ativo 125 / 142 40% 3 05.08.2027 -
Saša Lukić Ipswich Town Ativo 157 / 140 40% 1 05.08.2027 -
Mathias Jørgensen Blackburn Rovers Ativo 136 / 114 40% 1 04.08.2027 -
Ali Ahmed Norwich City Ativo 129 / 127 40% 1 04.08.2027 -
Caspar Jander Southampton Ativo 132 / 135 40% 1 03.08.2027 -
Jesús Vázquez Valencia Ativo 132 / 138 40% 1 03.08.2027 -
Oladapo Afolayan Blackburn Rovers Ativo 122 / 117 40% 1 03.08.2027 -
Tyrese Campbell Sheffield United Ativo 123 / 122 40% 2 02.08.2027 -
Samuel Edozie Southampton Ativo 123 / 137 40% 2 02.08.2027 -
Koki Saito Queens Park Rangers Ativo 142 / 135 40% 2 31.07.2027 -
Tyler Goodrham Oxford United Ativo 130 / 134 40% 1 30.07.2027 -
Florentino Luís Ipswich Town Ativo 145 / 143 40% 1 27.07.2027 -
Milan van Ewijk Coventry City Ativo 130 / 137 40% 1 27.07.2027 -
Jonathan Bland Barnsley Ativo 105 / 117 40% 1 27.07.2027 -
Sidiki Chérif Coventry City Ativo 121 / 137 40% 1 26.07.2027 -
Joseph Opoku Swansea City Ativo 115 / 124 40% 1 26.07.2027 -
Aaron Connolly Leyton Orient Ativo 132 / 116 40% 1 24.07.2027 -
Wilfried Gnonto Leeds United Ativo 150 / 135 40% 1 24.07.2027 -
Aaron Collins Milton Keynes Dons Ativo 108 / 113 40% 3 23.07.2027 -
Kieran Dowell Hull City Ativo 139 / 118 40% 1 22.07.2027 -
Alex Robertson Cardiff City Ativo 116 / 129 40% 1 22.07.2027 -
Isaiah Jones Luton Town Ativo 143 / 121 40% 2 21.07.2027 -
Aurèle Amenda Coventry City Ativo 150 / 139 40% 1 20.07.2027 -
Brooke Norton-Cuffy Genoa Ativo 143 / 140 40% 1 20.07.2027 -
Tomáš Rigo Stoke City Ativo 139 / 130 40% 1 17.07.2027 -
Mohamed Belloumi Hull City Ativo 151 / 147 40% 1 17.07.2027 -
Ar'jany Martha Rotherham United Ativo 118 / 114 40% 2 16.07.2027 -
Mark Sykes Millwall Ativo 129 / 132 40% 1 15.07.2027 -
Ryan Wintle Milton Keynes Dons Ativo 128 / 123 40% 1 15.07.2027 -
Lewis Bate Stockport County Ativo 118 / 123 40% 1 14.07.2027 -
Sam Bell Bristol City Ativo 119 / 123 40% 2 11.07.2027 -
Ollie O'Neill Leyton Orient Ativo 107 / 122 40% 1 11.07.2027 -
Patrick Maswanganyi Orlando Pirates Ativo 110 / 120 40% 1 10.07.2027 -
Ben Wiles Milton Keynes Dons Ativo 118 / 110 40% 1 10.07.2027 -
Luca Connell Barnsley Ativo 113 / 107 40% 1 09.07.2027 -
Alex Lowry Wycombe Wanderers Ativo 133 / 126 40% 1 08.07.2027 -
Kanya Fujimoto Birmingham Ativo 123 / 125 40% 2 29.06.2027 -
Stiven Shpendi Empoli Ativo 114 / 130 40% 1 29.06.2027 -
Rúben Rodrigues Bolton Wanderers Ativo 129 / 111 40% 1 28.06.2027 -
Fred Onyedinma Bradford City Ativo 124 / 125 40% 1 27.06.2027 -
Christian Saydee Wigan Athletic Ativo 120 / 109 40% 1 23.06.2027 -
Sergio Rodelas Granada Ativo 128 / 124 40% 1 23.06.2027 -
Gabriel Strefezza Palermo Ativo 142 / 132 40% 1 21.06.2027 -
Dylan Levitt Leyton Orient Ativo 117 / 112 40% 1 21.06.2027 -
Salah Mohsen El Masry Ativo 128 / 109 40% 1 19.06.2027 -
Sipho Mbule Asante Kotoko Ativo 123 / 111 40% 1 17.06.2027 -
Mathias Kvistgaarden Norwich City Ativo 107 / 119 40% 1 15.06.2027 -
Terry Devlin Portsmouth Ativo 108 / 125 40% 1 15.06.2027 -
Chem Campbell Stevenage Ativo 115 / 110 40% 1 06.06.2027 -
Sonny Carey Charlton Athletic Ativo 111 / 117 40% 1 06.06.2027 -
Edoardo Soleri Sampdoria Ativo 133 / 123 40% 1 02.06.2027 -
Soufiane Benjdida Malmo FF Ativo 121 / 122 68% 1 01.06.2027 Aprovar
Alexander Lyng SonderjyskE Ativo 109 / 123 40% 1 24.08.2026 -
Donavan Phillip Colorado Rapids Ativo 103 / 100 40% 1 21.08.2026 -
Ezekiel Kwame Alladoh Philadelphia Union Ativo 127 / 123 40% 1 20.08.2026 -
Mikkel Kallesøe Aalborg Ativo 99 / 99 58% 1 17.08.2026 -
Youssoufa Moukoko FC Copenhagen Ativo 113 / 121 40% 1 17.08.2026 -
Marco Bruhn Hobro Ativo 78 / 100 40% 1 14.08.2026 -
Lévy Néne FC Nordsjaelland Ativo 116 / 116 40% 1 11.08.2026 -
Justin-Noël Kalumba Mallorca Ativo 115 / 112 40% 1 03.08.2026 -
Thapelo Maseko FC Copenhagen Ativo 116 / 124 40% 1 01.08.2026 -